Hovedside
METAR-TAF:

METAR-TAF

Lufthavner :

Weno, Mikronesia

breddegrad: 07-28N, lengdegrad: 151-51E, høyde over havet: 3 m

Gjeldene værobservasjon

Denne rapporten ble laget for 1 time og 59 minutter siden, klokken 16:50 UTC
Vind 5 kt fra skiftende retning
Temperatur 25°C
Luftfuktighet 94%
Trykk 1005 hPa
Sikt: 24.1 km
Få skyer i en høyde av 1400 ft
Få skyer i en høyde av 12000 ft
Brutte skyer i en høyde av 28000 ft

METAR: PTKK 191650Z VRB05KT 15SM FEW014 FEW120 BKN280 25/24 A2969 RMK SLP057 T02500241

Tid: 04:49 (18:49 UTC)

Varsel

Denne rapporten ble laget for 58 minutter siden, klokken 17:51 UTC
Varsel gyldig fra 19. klokken 18 UTC til 20. klokken 18 UTC
Vind 11 kt fra Nordøst
Sikt: 10 km
Få skyer i en høyde av 1600 ft
Spredte skyer i en høyde av 12000 ft
regnbyger i nærheten

TAF: PTKK 191751Z 1918/2018 04011KT P6SM VCSH FEW016 SCT120

Værobservasjoner og værvarsel for over 4000 flyplasser (METAR- og TAF-rapporter).

Tilgjengelige stasjoner er representert av de røde og gule prikkene på kartet.

Hold musepekeren over prikken for å se navnet på stasjonen.

Klikk så for å se værobservasjoner og -varsler.

For å forandre kartet kan du klikke på den grønne knappen med svart kryss for å zoome inn, på den grønne knappen med strek for å zoome ut, eller på de grønne pilene for å se tilstøtende kart.


METAR-TAF: